Diepenbeek, Belgium
Current Conditions -  °F | °C
As of 10:25 AM on Friday 31 Oct 2014 (Local Time) from EHBK Reporting Station
Clear Clear  
Wind Chill: 61°   Ceiling: Unl
Heat Index: 61°   Visibility: 6mi
Dew Point: 54°   Wind: 10mph
Humidity: 77%   Direction: 200°SSW
Pressure: 30.21"   Gusts: NA
Location:  50.91°N, 5.42°E
Report Text: EHBK 310925Z AUTO 20009KT 9999 NSC 16/12 Q1023 NOSIG
Loading
Personal Weather Stations






























Interactive Weather Map
Tropical Storm Tracking
New forecast layout! Learn more

10-Day Weather Forecast

Advertisements
Track Severe Weather on mobile